Terminal Aerodrome Forecast
Issued by NWS

Home | Current Version | Previous Version | Text Only | Print | Product List | Glossary On
Versions: 1 2 3 4 5 6 7 8 9 10 11 12 13 14 15
512
FTUS46 KSTO 220549
TAFSCK
TAF
KSCK 220549Z 2206/2306 13020G30KT P6SM -RA OVC035
      TEMPO 2206/2210 4SM RA OVC025
     FM221000 14030G45KT P6SM RA OVC025
     FM221600 15020G30KT 5SM -RA OVC020
     FM222200 16010G20KT P6SM -SHRA OVC025=

USA.gov is the U.S. government's official web portal to all federal, state and local government web resources and services.